Time;durP1;ratioP1;P1;durP2;ratioP2;P2;SDS_P1;SDS_P2;PMS_P1;PMS_P2;Temp;Humidity;BMP_temperature;BMP_pressure;BME280_temperature;BME280_humidity;BME280_pressure;Samples;Min_cycle;Max_cycle;Signal;HPM_P1;HPM_P2
2023/12/24 00:04:30;;;;;;;;;;;;;;;17.18;46.43;98865.50;10330294;28;813;-72
2023/12/24 00:09:26;;;;;;;;;;;;;;;17.19;46.27;98850.59;10330617;28;851;-71
2023/12/24 00:14:22;;;;;;;;;;;;;;;17.18;46.27;98833.06;10331135;28;884;-72
2023/12/24 00:19:18;;;;;;;;;;;;;;;17.16;46.41;98827.91;10329626;28;1898;-72
2023/12/24 00:24:14;;;;;;;;;;;;;;;17.16;46.31;98827.91;10329677;28;852;-72
2023/12/24 00:29:09;;;;;;;;;;;;;;;17.16;46.44;98824.41;10329911;28;857;-71
2023/12/24 00:34:05;;;;;;;;;;;;;;;17.15;46.48;98822.72;10328574;28;1000;-71
2023/12/24 00:39:01;;;;;;;;;;;;;;;17.15;46.33;98812.16;10329305;28;1839;-72
2023/12/24 00:43:57;;;;;;;;;;;;;;;17.13;46.43;98816.66;10328635;28;1906;-72
2023/12/24 00:48:53;;;;;;;;;;;;;;;17.12;46.57;98818.47;10328487;28;1113;-72
2023/12/24 00:53:49;;;;;;;;;;;;;;;17.14;46.55;98813.13;10327619;28;1151;-72
2023/12/24 00:58:45;;;;;;;;;;;;;;;17.14;46.40;98808.69;10328105;28;992;-72
2023/12/24 01:03:41;;;;;;;;;;;;;;;17.13;46.54;98828.03;10327786;28;1890;-71
2023/12/24 01:08:37;;;;;;;;;;;;;;;17.14;46.32;98821.03;10328514;28;837;-72
2023/12/24 01:13:32;;;;;;;;;;;;;;;17.11;46.57;98829.94;10326934;28;1048;-72
2023/12/24 01:18:28;;;;;;;;;;;;;;;17.12;46.36;98839.53;10327901;28;942;-71
2023/12/24 01:23:24;;;;;;;;;;;;;;;17.15;46.55;98844.63;10326077;28;1894;-72
2023/12/24 01:28:20;;;;;;;;;;;;;;;17.15;46.43;98844.63;10327546;28;877;-72
2023/12/24 01:33:16;;;;;;;;;;;;;;;17.13;46.58;98838.56;10326993;28;991;-71
2023/12/24 01:38:12;;;;;;;;;;;;;;;17.13;46.51;98835.09;10326893;28;1222;-72
2023/12/24 01:43:08;;;;;;;;;;;;;;;17.16;46.28;98819.13;10326911;28;1977;-72
2023/12/24 01:48:04;;;;;;;;;;;;;;;17.17;46.10;98797.16;10326815;28;790;-72
2023/12/24 01:53:00;;;;;;;;;;;;;;;17.14;46.61;98802.59;10326291;28;853;-71
2023/12/24 01:57:56;;;;;;;;;;;;;;;17.12;46.44;98796.56;10326031;28;822;-71
2023/12/24 02:02:52;;;;;;;;;;;;;;;17.09;46.44;98800.19;10326943;28;1894;-72
2023/12/24 02:07:48;;;;;;;;;;;;;;;17.10;46.41;98807.16;10325758;28;783;-71
2023/12/24 02:12:43;;;;;;;;;;;;;;;17.09;46.57;98805.47;10326462;28;870;-72
2023/12/24 02:17:39;;;;;;;;;;;;;;;17.09;46.38;98813.38;10324903;28;1118;-72
2023/12/24 02:22:35;;;;;;;;;;;;;;;17.10;46.57;98783.47;10325897;28;1889;-72
2023/12/24 02:27:31;;;;;;;;;;;;;;;17.10;46.80;98770.28;10325327;28;929;-72
2023/12/24 02:32:27;;;;;;;;;;;;;;;17.09;46.51;98768.59;10328008;28;852;-72
2023/12/24 02:37:23;;;;;;;;;;;;;;;17.07;46.61;98757.31;10334398;28;1282;-72
2023/12/24 02:42:19;;;;;;;;;;;;;;;17.06;46.46;98769.63;10333989;28;1910;-71
2023/12/24 02:47:15;;;;;;;;;;;;;;;17.08;46.59;98773.03;10333333;28;858;-72
2023/12/24 02:52:11;;;;;;;;;;;;;;;17.08;46.68;98759.00;10333044;28;834;-71
2023/12/24 02:57:07;;;;;;;;;;;;;;;17.07;46.67;98754.66;10333514;28;834;-71
2023/12/24 03:02:02;;;;;;;;;;;;;;;17.05;46.56;98744.22;10332908;28;1898;-72
2023/12/24 03:06:58;;;;;;;;;;;;;;;17.05;46.49;98717.03;10333374;28;849;-71
2023/12/24 03:11:54;;;;;;;;;;;;;;;17.00;46.58;98726.97;10333107;28;917;-72
2023/12/24 03:16:50;;;;;;;;;;;;;;;16.97;46.51;98708.72;10332064;28;754;-72
2023/12/24 03:21:46;;;;;;;;;;;;;;;16.97;46.51;98700.84;10332365;28;1965;-72
2023/12/24 03:26:42;;;;;;;;;;;;;;;16.92;46.54;98708.97;10331715;28;771;-71
2023/12/24 03:31:38;;;;;;;;;;;;;;;16.85;46.59;98692.72;10332138;28;909;-72
2023/12/24 03:36:34;;;;;;;;;;;;;;;16.80;46.85;98693.91;10331049;28;1241;-71
2023/12/24 03:41:29;;;;;;;;;;;;;;;16.79;46.80;98690.44;10331102;28;1918;-72
2023/12/24 03:46:27;;;;;;;;;;;;;;;16.81;46.89;98683.28;10330600;28;995;-72
2023/12/24 03:51:23;;;;;;;;;;;;;;;16.84;46.95;98674.34;10330810;28;837;-71
2023/12/24 03:56:19;;;;;;;;;;;;;;;16.94;46.79;98679.97;10331185;28;845;-72
2023/12/24 04:01:15;;;;;;;;;;;;;;;16.91;46.56;98683.63;10330403;28;1913;-71
2023/12/24 04:06:16;;;;;;;;;;;;;;;16.94;46.86;98674.69;10330226;28;885;-71
2023/12/24 04:11:12;;;;;;;;;;;;;;;17.00;46.70;98679.59;10330658;28;904;-72
2023/12/24 04:16:08;;;;;;;;;;;;;;;16.96;46.66;98684.19;10329244;28;958;-71
2023/12/24 04:21:04;;;;;;;;;;;;;;;16.92;46.81;98679.19;10330019;28;1959;-72
2023/12/24 04:25:59;;;;;;;;;;;;;;;16.95;46.61;98669.34;10329543;28;767;-71
2023/12/24 04:30:56;;;;;;;;;;;;;;;16.98;46.85;98676.22;10329324;28;887;-71
2023/12/24 04:35:52;;;;;;;;;;;;;;;16.97;46.72;98659.56;10328398;28;1362;-71
2023/12/24 04:40:48;;;;;;;;;;;;;;;17.01;46.76;98665.53;10328349;28;1975;-72
2023/12/24 04:45:43;;;;;;;;;;;;;;;16.99;46.87;98664.75;10328714;28;944;-72
2023/12/24 04:50:39;;;;;;;;;;;;;;;17.05;46.62;98667.03;10327951;28;873;-72
2023/12/24 04:55:35;;;;;;;;;;;;;;;17.15;46.56;98657.66;10327536;28;826;-77
2023/12/24 05:00:31;;;;;;;;;;;;;;;17.12;46.55;98668.38;10328737;28;1890;-73
2023/12/24 05:05:27;;;;;;;;;;;;;;;17.15;46.81;98652.41;10329008;28;810;-72
2023/12/24 05:10:23;;;;;;;;;;;;;;;17.21;46.49;98646.78;10328547;28;826;-73
2023/12/24 05:15:19;;;;;;;;;;;;;;;17.21;46.70;98633.63;10326914;28;1416;-73
2023/12/24 05:20:14;;;;;;;;;;;;;;;17.22;46.72;98622.16;10327797;28;1898;-72
2023/12/24 05:25:10;;;;;;;;;;;;;;;17.22;46.79;98622.16;10327711;28;810;-73
2023/12/24 05:30:06;;;;;;;;;;;;;;;17.19;46.89;98621.50;10326918;28;873;-74
2023/12/24 05:35:02;;;;;;;;;;;;;;;17.26;46.81;98610.47;10327218;28;973;-72
2023/12/24 05:39:58;;;;;;;;;;;;;;;17.27;46.89;98611.34;10327037;28;1917;-73
2023/12/24 05:44:55;;;;;;;;;;;;;;;17.24;46.89;98604.47;10326969;28;1405;-72
2023/12/24 05:49:51;;;;;;;;;;;;;;;17.24;47.10;98596.56;10326806;28;954;-77
2023/12/24 05:54:47;;;;;;;;;;;;;;;17.31;46.94;98616.31;10326167;28;861;-77
2023/12/24 05:59:43;;;;;;;;;;;;;;;17.22;47.22;98595.81;10326607;28;1906;-77
2023/12/24 06:04:39;;;;;;;;;;;;;;;17.20;47.38;98596.84;10325869;28;964;-76
2023/12/24 06:09:34;;;;;;;;;;;;;;;17.20;47.28;98595.03;10325657;28;844;-76
2023/12/24 06:14:30;;;;;;;;;;;;;;;17.17;47.26;98583.84;10325598;28;802;-72
2023/12/24 06:19:26;;;;;;;;;;;;;;;17.26;47.23;98593.84;10326140;28;839;-73
2023/12/24 06:24:22;;;;;;;;;;;;;;;17.29;47.14;98602.41;10326033;28;881;-73
2023/12/24 06:29:18;;;;;;;;;;;;;;;17.26;47.15;98597.31;10325254;28;862;-73
2023/12/24 06:34:14;;;;;;;;;;;;;;;17.21;47.30;98596.75;10325189;28;927;-72
2023/12/24 06:39:11;;;;;;;;;;;;;;;17.32;47.18;98604.03;10324926;28;1286;-72
2023/12/24 06:44:07;;;;;;;;;;;;;;;17.26;47.12;98589.41;10325940;28;1969;-73
2023/12/24 06:49:03;;;;;;;;;;;;;;;17.26;47.31;98586.78;10325618;28;862;-73
2023/12/24 06:53:59;;;;;;;;;;;;;;;17.26;47.42;98581.50;10324889;28;846;-72
2023/12/24 06:58:55;;;;;;;;;;;;;;;17.27;47.45;98588.47;10325346;28;909;-72
2023/12/24 07:03:51;;;;;;;;;;;;;;;17.22;47.35;98590.53;10324443;28;1959;-72
2023/12/24 07:08:46;;;;;;;;;;;;;;;17.27;47.42;98580.59;10324631;28;1022;-73
2023/12/24 07:13:42;;;;;;;;;;;;;;;17.28;47.36;98579.63;10324499;28;783;-72
2023/12/24 07:18:39;;;;;;;;;;;;;;;17.25;47.43;98571.91;10327261;28;805;-73
2023/12/24 07:23:35;;;;;;;;;;;;;;;17.28;47.39;98573.53;10332397;28;1898;-72
2023/12/24 07:28:30;;;;;;;;;;;;;;;17.34;47.22;98577.56;10332266;28;903;-72
2023/12/24 07:33:26;;;;;;;;;;;;;;;17.26;47.36;98572.75;10331516;28;873;-72
2023/12/24 07:38:22;;;;;;;;;;;;;;;17.13;47.73;98584.97;10331490;28;1244;-72
2023/12/24 07:43:18;;;;;;;;;;;;;;;17.07;47.78;98576.50;10331658;28;1917;-71
2023/12/24 07:48:14;;;;;;;;;;;;;;;17.08;47.86;98575.56;10330988;28;830;-73
2023/12/24 07:53:10;;;;;;;;;;;;;;;17.28;47.50;98582.28;10331348;28;826;-72
2023/12/24 07:58:06;;;;;;;;;;;;;;;17.29;47.50;98567.31;10331224;28;881;-71
2023/12/24 08:03:01;;;;;;;;;;;;;;;17.31;47.50;98563.63;10330952;28;1964;-72
2023/12/24 08:07:57;;;;;;;;;;;;;;;17.30;47.69;98571.66;10330875;28;964;-71
2023/12/24 08:12:53;;;;;;;;;;;;;;;17.35;47.53;98566.13;10330663;28;965;-72
2023/12/24 08:17:49;;;;;;;;;;;;;;;17.32;47.63;98569.78;10330519;28;799;-71
2023/12/24 08:22:45;;;;;;;;;;;;;;;17.38;47.47;98571.19;10329645;28;1957;-72
2023/12/24 08:27:41;;;;;;;;;;;;;;;17.36;47.57;98567.78;10329518;28;958;-72
2023/12/24 08:32:37;;;;;;;;;;;;;;;17.37;47.57;98564.22;10328588;28;818;-74
2023/12/24 08:37:35;;;;;;;;;;;;;;;17.35;47.62;98580.13;10329817;28;1377;-72
2023/12/24 08:42:31;;;;;;;;;;;;;;;17.40;47.69;98579.84;10329650;28;1918;-73
2023/12/24 08:47:27;;;;;;;;;;;;;;;17.34;47.68;98569.66;10328795;28;756;-72
2023/12/24 08:52:23;;;;;;;;;;;;;;;17.36;47.59;98576.53;10329141;28;826;-74
2023/12/24 08:57:19;;;;;;;;;;;;;;;17.35;47.47;98553.78;10328989;28;868;-73
2023/12/24 09:02:15;;;;;;;;;;;;;;;17.38;47.75;98572.03;10328210;28;1961;-73
2023/12/24 09:07:10;;;;;;;;;;;;;;;17.36;47.64;98567.78;10327929;28;899;-71
2023/12/24 09:12:06;;;;;;;;;;;;;;;17.37;47.65;98566.84;10327780;28;875;-71
2023/12/24 09:17:03;;;;;;;;;;;;;;;17.36;47.68;98568.63;10327538;28;976;-72
2023/12/24 09:21:59;;;;;;;;;;;;;;;17.36;47.52;98566.00;10327170;28;1901;-72
2023/12/24 09:26:54;;;;;;;;;;;;;;;17.39;47.54;98562.34;10327165;28;881;-74
2023/12/24 09:31:50;;;;;;;;;;;;;;;17.42;47.58;98546.34;10326934;28;862;-72
2023/12/24 09:36:46;;;;;;;;;;;;;;;17.39;47.67;98575.50;10326532;28;1207;-74
2023/12/24 09:41:42;;;;;;;;;;;;;;;17.24;48.02;98588.69;10326137;28;1914;-69
2023/12/24 09:46:38;;;;;;;;;;;;;;;17.16;48.17;98577.75;10327956;28;869;-71
2023/12/24 09:51:34;;;;;;;;;;;;;;;17.13;48.05;98577.06;10326853;28;885;-71
2023/12/24 09:56:30;;;;;;;;;;;;;;;17.11;47.97;98592.97;10326398;28;874;-72
2023/12/24 10:01:26;;;;;;;;;;;;;;;17.10;48.17;98588.63;10325467;28;1889;-75
2023/12/24 10:06:22;;;;;;;;;;;;;;;17.11;48.09;98566.66;10325882;28;1482;-78
2023/12/24 10:11:20;;;;;;;;;;;;;;;17.07;48.17;98565.13;10325765;28;1423;-71
2023/12/24 10:16:16;;;;;;;;;;;;;;;17.08;48.14;98578.19;10325746;28;1463;-69
2023/12/24 10:21:12;;;;;;;;;;;;;;;17.06;48.02;98566.06;10325390;28;1898;-70
2023/12/24 10:26:10;;;;;;;;;;;;;;;17.04;48.30;98571.41;10324901;28;1435;-77
2023/12/24 10:31:09;;;;;;;;;;;;;;;17.06;48.00;98552.91;10324749;28;948;-71
2023/12/24 10:36:05;;;;;;;;;;;;;;;17.06;48.33;98550.28;10325170;28;1148;-71
2023/12/24 10:41:00;;;;;;;;;;;;;;;17.02;48.35;98544.31;10325333;28;1921;-71
2023/12/24 10:45:56;;;;;;;;;;;;;;;17.13;48.29;98534.94;10325571;28;1261;-76
2023/12/24 10:50:52;;;;;;;;;;;;;;;17.20;48.40;98520.47;10324895;28;1419;-76
2023/12/24 10:55:48;;;;;;;;;;;;;;;17.19;48.41;98527.53;10331154;28;1400;-76
2023/12/24 11:00:44;;;;;;;;;;;;;;;17.19;48.34;98500.38;10332497;28;1897;-76
2023/12/24 11:05:45;;;;;;;;;;;;;;;17.19;48.29;98500.38;10331891;28;1403;-75
2023/12/24 11:10:41;;;;;;;;;;;;;;;17.19;48.49;98500.38;10331579;28;1624;-75
2023/12/24 11:15:37;;;;;;;;;;;;;;;17.22;48.51;98500.16;10331690;28;1419;-70
2023/12/24 11:20:33;;;;;;;;;;;;;;;17.25;48.64;98502.63;10332138;28;1894;-69
2023/12/24 11:25:29;;;;;;;;;;;;;;;17.25;48.75;98515.78;10331865;28;932;-69
2023/12/24 11:30:25;;;;;;;;;;;;;;;17.20;48.62;98526.59;10331674;28;1227;-69
2023/12/24 11:35:21;;;;;;;;;;;;;;;17.25;48.47;98513.97;10331369;28;913;-71
2023/12/24 11:40:18;;;;;;;;;;;;;;;17.27;48.92;98509.47;10332376;28;1917;-75
2023/12/24 11:45:14;;;;;;;;;;;;;;;17.27;49.03;98498.09;10330749;28;1384;-71
2023/12/24 11:50:10;;;;;;;;;;;;;;;17.28;48.93;98497.16;10332182;28;1007;-72
2023/12/24 11:55:06;;;;;;;;;;;;;;;17.21;49.14;98487.94;10329927;28;1430;-72
2023/12/24 12:00:02;;;;;;;;;;;;;;;17.23;48.92;98500.06;10330089;28;1968;-73
2023/12/24 12:04:58;;;;;;;;;;;;;;;17.24;48.93;98493.88;10329783;28;802;-75
2023/12/24 12:09:53;;;;;;;;;;;;;;;17.22;49.21;98479.09;10330147;28;841;-74
2023/12/24 12:14:55;;;;;;;;;;;;;;;17.26;49.06;98472.69;10330667;28;861;-73
2023/12/24 12:19:51;;;;;;;;;;;;;;;17.30;48.90;98485.59;10329441;28;1902;-74
2023/12/24 12:24:47;;;;;;;;;;;;;;;17.30;49.15;98471.56;10329768;28;786;-74
2023/12/24 12:29:44;;;;;;;;;;;;;;;17.29;48.89;98470.75;10329825;28;821;-74
2023/12/24 12:34:41;;;;;;;;;;;;;;;17.34;48.83;98467.78;10329243;28;922;-74
2023/12/24 12:39:36;;;;;;;;;;;;;;;17.30;49.16;98476.84;10330302;28;1136;-74
2023/12/24 12:44:32;;;;;;;;;;;;;;;17.26;49.11;98460.38;10329436;28;2022;-74
2023/12/24 12:49:28;;;;;;;;;;;;;;;17.33;49.03;98455.56;10329595;28;782;-74
2023/12/24 12:54:24;;;;;;;;;;;;;;;17.31;49.15;98442.50;10328424;28;1027;-74
2023/12/24 12:59:21;;;;;;;;;;;;;;;17.27;49.29;98422.56;10328925;28;876;-74
2023/12/24 13:04:17;;;;;;;;;;;;;;;17.28;48.96;98428.69;10327393;28;1885;-74
2023/12/24 13:09:13;;;;;;;;;;;;;;;17.34;49.13;98419.53;10327884;28;773;-74
2023/12/24 13:14:08;;;;;;;;;;;;;;;17.28;49.24;98420.78;10328292;28;932;-74
2023/12/24 13:19:04;;;;;;;;;;;;;;;17.33;49.16;98421.34;10326250;28;769;-74
2023/12/24 13:24:00;;;;;;;;;;;;;;;17.35;49.22;98421.25;10327194;28;1963;-74
2023/12/24 13:28:56;;;;;;;;;;;;;;;17.32;49.01;98411.75;10326616;28;897;-74
2023/12/24 13:33:54;;;;;;;;;;;;;;;17.33;49.18;98402.06;10327506;28;884;-74
2023/12/24 13:38:50;;;;;;;;;;;;;;;17.37;49.08;98398.28;10327023;28;1061;-74
2023/12/24 13:43:46;;;;;;;;;;;;;;;17.33;49.23;98392.38;10326465;28;2024;-74
2023/12/24 13:48:42;;;;;;;;;;;;;;;17.33;49.03;98391.53;10327008;28;902;-74
2023/12/24 13:53:37;;;;;;;;;;;;;;;17.33;49.11;98391.53;10326821;28;880;-75
2023/12/24 13:58:34;;;;;;;;;;;;;;;17.32;49.22;98380.16;10326229;28;848;-74
2023/12/24 14:03:30;;;;;;;;;;;;;;;17.31;49.13;98366.13;10325849;28;1893;-74
2023/12/24 14:08:25;;;;;;;;;;;;;;;17.34;48.98;98367.72;10325794;28;873;-74
2023/12/24 14:13:21;;;;;;;;;;;;;;;17.40;48.97;98363.88;10325985;28;845;-74
2023/12/24 14:18:17;;;;;;;;;;;;;;;17.35;49.15;98369.41;10325687;28;861;-74
2023/12/24 14:23:13;;;;;;;;;;;;;;;17.38;49.14;98366.59;10326084;28;1890;-74
2023/12/24 14:28:09;;;;;;;;;;;;;;;17.30;49.11;98359.19;10325424;28;974;-75
2023/12/24 14:33:05;;;;;;;;;;;;;;;17.31;49.07;98371.38;10325355;28;802;-74
2023/12/24 14:38:01;;;;;;;;;;;;;;;17.33;49.22;98366.03;10324456;28;1255;-74
2023/12/24 14:42:57;;;;;;;;;;;;;;;17.36;49.20;98365.00;10325664;28;1981;-74
2023/12/24 14:47:54;;;;;;;;;;;;;;;17.30;49.32;98353.06;10324991;28;967;-74
2023/12/24 14:52:50;;;;;;;;;;;;;;;17.31;49.20;98352.94;10324967;28;841;-74
2023/12/24 14:57:46;;;;;;;;;;;;;;;17.34;49.06;98343.16;10325210;28;880;-74
2023/12/24 15:02:43;;;;;;;;;;;;;;;17.33;49.29;98334.44;10324708;28;1890;-74
2023/12/24 15:07:41;;;;;;;;;;;;;;;17.36;49.28;98343.94;10324594;28;893;-74
2023/12/24 15:12:36;;;;;;;;;;;;;;;17.36;49.19;98317.59;10324527;28;886;-74
2023/12/24 15:17:34;;;;;;;;;;;;;;;17.39;49.50;98317.38;10324493;28;969;-74
2023/12/24 15:22:30;;;;;;;;;;;;;;;17.34;49.29;98335.28;10324944;28;1898;-74
2023/12/24 15:27:26;;;;;;;;;;;;;;;17.35;49.40;98348.34;10325198;28;967;-74
2023/12/24 15:32:22;;;;;;;;;;;;;;;17.34;49.36;98343.16;10324208;28;894;-74
2023/12/24 15:37:18;;;;;;;;;;;;;;;17.33;49.72;98344.13;10324592;28;1227;-75
2023/12/24 15:42:15;;;;;;;;;;;;;;;17.34;49.60;98344.00;10329895;28;1910;-74
2023/12/24 15:47:11;;;;;;;;;;;;;;;17.39;49.72;98343.72;10331710;28;886;-74
2023/12/24 15:52:07;;;;;;;;;;;;;;;17.33;49.46;98344.13;10330995;28;850;-74
2023/12/24 15:57:05;;;;;;;;;;;;;;;17.35;49.44;98335.19;10330781;28;784;-74
2023/12/24 16:02:01;;;;;;;;;;;;;;;17.35;49.62;98344.88;10330498;28;1957;-74
2023/12/24 16:06:57;;;;;;;;;;;;;;;17.31;49.54;98350.31;10330494;28;945;-74
2023/12/24 16:11:53;;;;;;;;;;;;;;;17.32;49.70;98348.56;10330313;28;767;-74
2023/12/24 16:16:49;;;;;;;;;;;;;;;17.40;49.89;98348.06;10330785;28;778;-74
2023/12/24 16:21:45;;;;;;;;;;;;;;;17.36;49.60;98341.28;10330399;28;1890;-74
2023/12/24 16:26:40;;;;;;;;;;;;;;;17.38;49.81;98358.69;10329125;28;973;-74
2023/12/24 16:31:36;;;;;;;;;;;;;;;17.38;49.51;98361.31;10330288;28;862;-75
2023/12/24 16:36:32;;;;;;;;;;;;;;;17.40;49.78;98364.72;10329875;28;1148;-74
2023/12/24 16:41:28;;;;;;;;;;;;;;;17.36;50.02;98357.09;10329107;28;1973;-75
2023/12/24 16:46:24;;;;;;;;;;;;;;;17.37;49.64;98353.50;10329528;28;833;-74
2023/12/24 16:51:20;;;;;;;;;;;;;;;17.39;49.53;98356.91;10327608;28;844;-74
2023/12/24 16:56:16;;;;;;;;;;;;;;;17.39;49.69;98370.06;10328438;28;896;-74
2023/12/24 17:01:12;;;;;;;;;;;;;;;17.41;49.57;98350.59;10328235;28;1893;-74
2023/12/24 17:06:08;;;;;;;;;;;;;;;17.41;49.96;98353.22;10328080;28;793;-74
2023/12/24 17:11:03;;;;;;;;;;;;;;;17.36;49.90;98368.47;10327878;28;912;-74
2023/12/24 17:15:59;;;;;;;;;;;;;;;17.36;49.73;98355.31;10328336;28;880;-75
2023/12/24 17:20:55;;;;;;;;;;;;;;;17.47;49.74;98354.59;10328027;28;2019;-74
2023/12/24 17:25:51;;;;;;;;;;;;;;;17.39;50.21;98349.84;10327369;28;835;-74
2023/12/24 17:30:47;;;;;;;;;;;;;;;17.35;50.11;98369.41;10327653;28;865;-75
2023/12/24 17:35:43;;;;;;;;;;;;;;;17.42;49.86;98389.19;10327116;28;1184;-74
2023/12/24 17:40:39;;;;;;;;;;;;;;;17.39;50.02;98385.88;10326654;28;1910;-74
2023/12/24 17:45:35;;;;;;;;;;;;;;;17.38;50.09;98400.00;10326607;28;801;-74
2023/12/24 17:50:31;;;;;;;;;;;;;;;17.38;49.97;98427.16;10325834;28;826;-74
2023/12/24 17:55:27;;;;;;;;;;;;;;;17.40;49.87;98425.28;10326872;28;873;-75
2023/12/24 18:00:22;;;;;;;;;;;;;;;17.38;50.01;98445.59;10326059;28;1893;-74
2023/12/24 18:05:18;;;;;;;;;;;;;;;17.39;49.82;98425.38;10326040;28;845;-74
2023/12/24 18:10:15;;;;;;;;;;;;;;;17.42;49.81;98406.75;10326509;28;853;-74
2023/12/24 18:15:11;;;;;;;;;;;;;;;17.33;50.05;98387.09;10325723;28;916;-74
2023/12/24 18:20:08;;;;;;;;;;;;;;;17.36;50.15;98415.88;10326256;28;1890;-75
2023/12/24 18:25:03;;;;;;;;;;;;;;;17.40;50.40;98420.03;10324912;28;913;-75
2023/12/24 18:29:59;;;;;;;;;;;;;;;17.36;50.46;98415.88;10325534;28;1000;-75
2023/12/24 18:34:55;;;;;;;;;;;;;;;17.39;50.36;98422.75;10326009;28;825;-75
2023/12/24 18:39:51;;;;;;;;;;;;;;;17.39;50.04;98399.88;10325857;28;1128;-75
2023/12/24 18:44:47;;;;;;;;;;;;;;;17.43;49.96;98419.00;10325707;28;1914;-74
2023/12/24 18:49:43;;;;;;;;;;;;;;;17.41;50.13;98463.00;10324474;28;1157;-74
2023/12/24 18:54:39;;;;;;;;;;;;;;;17.41;49.85;98463.84;10325549;28;901;-74
2023/12/24 18:59:35;;;;;;;;;;;;;;;17.41;50.04;98473.53;10325428;28;853;-74
2023/12/24 19:04:31;;;;;;;;;;;;;;;17.42;49.77;98491.03;10325840;28;1955;-74
2023/12/24 19:09:27;;;;;;;;;;;;;;;17.43;49.70;98503.28;10324685;28;959;-75
2023/12/24 19:14:22;;;;;;;;;;;;;;;17.43;49.71;98511.19;10327046;28;833;-74
2023/12/24 19:19:18;;;;;;;;;;;;;;;17.42;49.77;98493.66;10332261;28;814;-74
2023/12/24 19:24:15;;;;;;;;;;;;;;;17.44;49.62;98511.06;10331988;28;1890;-74
2023/12/24 19:29:11;;;;;;;;;;;;;;;17.45;49.68;98496.97;10331850;28;778;-74
2023/12/24 19:34:07;;;;;;;;;;;;;;;17.44;49.77;98499.69;10332302;28;913;-75
2023/12/24 19:39:03;;;;;;;;;;;;;;;17.44;49.68;98504.97;10331255;28;1229;-74
2023/12/24 19:43:59;;;;;;;;;;;;;;;17.45;49.57;98512.78;10331187;28;1959;-74
2023/12/24 19:48:55;;;;;;;;;;;;;;;17.46;49.71;98508.34;10331262;28;853;-75
2023/12/24 19:53:50;;;;;;;;;;;;;;;17.43;49.77;98513.81;10331012;28;882;-74
2023/12/24 19:58:48;;;;;;;;;;;;;;;17.45;49.81;98515.41;10330884;28;801;-75
2023/12/24 20:03:44;;;;;;;;;;;;;;;17.45;49.78;98511.94;10331130;28;1961;-74
2023/12/24 20:08:40;;;;;;;;;;;;;;;17.43;50.10;98521.72;10330422;28;980;-74
2023/12/24 20:13:36;;;;;;;;;;;;;;;17.45;49.78;98535.66;10330299;28;791;-74
2023/12/24 20:18:32;;;;;;;;;;;;;;;17.47;49.75;98536.38;10330815;28;955;-75
2023/12/24 20:23:28;;;;;;;;;;;;;;;17.47;49.82;98546.91;10330176;28;1898;-74
2023/12/24 20:28:24;;;;;;;;;;;;;;;17.45;49.81;98548.81;10328938;28;909;-74
2023/12/24 20:33:22;;;;;;;;;;;;;;;17.47;49.71;98560.09;10330260;28;826;-75
2023/12/24 20:38:18;;;;;;;;;;;;;;;17.48;49.82;98556.53;10329409;28;1266;-74
2023/12/24 20:43:14;;;;;;;;;;;;;;;17.43;49.77;98575.25;10328990;28;1905;-74
2023/12/24 20:48:10;;;;;;;;;;;;;;;17.42;49.90;98556.88;10329492;28;832;-74
2023/12/24 20:53:06;;;;;;;;;;;;;;;17.41;49.92;98557.84;10328718;28;935;-74
2023/12/24 20:58:03;;;;;;;;;;;;;;;17.41;49.95;98566.56;10328519;28;845;-74
2023/12/24 21:02:59;;;;;;;;;;;;;;;17.39;49.86;98570.25;10328198;28;1898;-74
2023/12/24 21:07:54;;;;;;;;;;;;;;;17.33;50.11;98575.88;10328678;28;893;-74
2023/12/24 21:12:50;;;;;;;;;;;;;;;17.34;49.99;98567.88;10328504;28;910;-75
2023/12/24 21:17:46;;;;;;;;;;;;;;;17.35;50.08;98569.59;10327705;28;810;-74
2023/12/24 21:22:42;;;;;;;;;;;;;;;17.36;50.03;98573.91;10328043;28;1947;-74
2023/12/24 21:27:39;;;;;;;;;;;;;;;17.37;49.76;98587.91;10326736;28;881;-74
2023/12/24 21:32:34;;;;;;;;;;;;;;;17.37;49.86;98593.19;10327040;28;914;-74
2023/12/24 21:37:30;;;;;;;;;;;;;;;17.36;50.03;98580.97;10326747;28;1332;-74
2023/12/24 21:42:26;;;;;;;;;;;;;;;17.33;50.13;98599.59;10327289;28;1906;-74
2023/12/24 21:47:22;;;;;;;;;;;;;;;17.34;49.90;98606.53;10326566;28;865;-75
2023/12/24 21:52:18;;;;;;;;;;;;;;;17.30;50.28;98596.19;10327974;28;1660;-74
2023/12/24 21:57:15;;;;;;;;;;;;;;;17.30;50.05;98596.19;10326266;28;913;-75
2023/12/24 22:02:11;;;;;;;;;;;;;;;17.28;50.08;98590.16;10326074;28;1965;-74
2023/12/24 22:07:07;;;;;;;;;;;;;;;17.22;50.29;98606.34;10325992;28;932;-74
2023/12/24 22:12:02;;;;;;;;;;;;;;;17.16;50.30;98601.44;10326584;28;774;-75
2023/12/24 22:16:58;;;;;;;;;;;;;;;17.14;50.32;98607.75;10326462;28;917;-75
2023/12/24 22:21:54;;;;;;;;;;;;;;;17.06;50.32;98622.19;10325576;28;1893;-75
2023/12/24 22:26:50;;;;;;;;;;;;;;;17.05;50.23;98594.16;10325512;28;868;-74
2023/12/24 22:31:46;;;;;;;;;;;;;;;17.02;50.41;98628.56;10325468;28;972;-75
2023/12/24 22:36:42;;;;;;;;;;;;;;;16.98;50.53;98626.22;10325496;28;1397;-74
2023/12/24 22:41:38;;;;;;;;;;;;;;;16.97;50.26;98611.34;10324567;28;1914;-74
2023/12/24 22:46:34;;;;;;;;;;;;;;;16.88;50.62;98577.66;10325162;28;878;-74
2023/12/24 22:51:30;;;;;;;;;;;;;;;16.83;50.58;98588.47;10331326;28;1027;-75
2023/12/24 22:56:25;;;;;;;;;;;;;;;16.76;50.95;98595.81;10333965;28;807;-75
2023/12/24 23:01:21;;;;;;;;;;;;;;;16.74;50.72;98602.97;10333008;28;1952;-75
2023/12/24 23:06:17;;;;;;;;;;;;;;;16.73;50.81;98618.84;10332854;28;915;-75
2023/12/24 23:11:13;;;;;;;;;;;;;;;16.71;50.78;98620.69;10332711;28;1029;-74
2023/12/24 23:16:09;;;;;;;;;;;;;;;16.68;50.85;98626.97;10333047;28;876;-74
2023/12/24 23:21:05;;;;;;;;;;;;;;;16.65;50.78;98627.16;10332717;28;1902;-74
2023/12/24 23:26:01;;;;;;;;;;;;;;;16.62;50.71;98612.38;10332071;28;794;-74
2023/12/24 23:30:57;;;;;;;;;;;;;;;16.62;50.81;98603.66;10331862;28;929;-74
2023/12/24 23:35:53;;;;;;;;;;;;;;;16.60;50.85;98602.88;10331262;28;1144;-75
2023/12/24 23:40:48;;;;;;;;;;;;;;;16.55;51.07;98584.72;10331617;28;1918;-74
2023/12/24 23:45:44;;;;;;;;;;;;;;;16.53;51.01;98597.16;10331391;28;766;-74
2023/12/24 23:50:40;;;;;;;;;;;;;;;16.49;50.94;98584.25;10331166;28;842;-74
2023/12/24 23:55:36;;;;;;;;;;;;;;;16.48;51.20;98577.28;10331813;28;802;-74
